Time;durP1;ratioP1;P1;durP2;ratioP2;P2;SDS_P1;SDS_P2;PMS_P1;PMS_P2;Temp;Humidity;BMP_temperature;BMP_pressure;BME280_temperature;BME280_humidity;BME280_pressure;Samples;Min_cycle;Max_cycle;Signal;HPM_P1;HPM_P2
2022/03/29 00:02:13;;;;;;;13.23;11.83;;;12.00;19.00;;;;;;10324343;28;20247;-76
2022/03/29 00:07:16;;;;;;;11.00;9.80;;;12.00;19.30;;;;;;10318183;28;20246;-76
2022/03/29 00:12:19;;;;;;;13.37;11.97;;;11.90;19.10;;;;;;10335160;28;20230;-76
2022/03/29 00:17:24;;;;;;;10.33;9.33;;;11.80;19.30;;;;;;10321101;28;20630;-76
2022/03/29 00:22:27;;;;;;;12.23;10.70;;;11.70;19.50;;;;;;10324323;28;20233;-76
2022/03/29 00:27:30;;;;;;;12.93;11.57;;;11.60;19.40;;;;;;10330159;28;20289;-76
2022/03/29 00:32:35;;;;;;;12.27;10.73;;;11.60;19.60;;;;;;10323312;28;20232;-75
2022/03/29 00:37:39;;;;;;;14.23;11.83;;;11.50;19.60;;;;;;10310933;28;20247;-76
2022/03/29 00:42:43;;;;;;;13.80;10.80;;;11.30;19.40;;;;;;10323061;28;20317;-75
2022/03/29 00:47:47;;;;;;;14.20;10.80;;;11.30;19.40;;;;;;10319605;28;20977;-77
2022/03/29 00:52:51;;;;;;;11.60;10.40;;;11.10;19.30;;;;;;10319772;28;20238;-75
2022/03/29 00:57:54;;;;;;;13.97;10.77;;;11.10;19.30;;;;;;10318383;28;20265;-75
2022/03/29 01:03:00;;;;;;;14.67;11.67;;;11.00;19.40;;;;;;10318102;28;20598;-76
2022/03/29 01:08:04;;;;;;;15.97;11.40;;;11.00;19.90;;;;;;10315583;28;20234;-76
2022/03/29 01:13:07;;;;;;;13.97;10.73;;;10.90;19.70;;;;;;10318358;28;20239;-77
2022/03/29 01:18:13;;;;;;;13.33;11.00;;;10.90;19.90;;;;;;10320962;28;20242;-76
2022/03/29 01:23:18;;;;;;;12.60;11.30;;;10.80;20.10;;;;;;10328514;28;20235;-76
2022/03/29 01:28:23;;;;;;;12.40;10.03;;;10.80;20.20;;;;;;10320684;28;20250;-76
2022/03/29 01:33:28;;;;;;;13.97;10.73;;;10.70;19.90;;;;;;10322785;28;20233;-76
2022/03/29 01:38:33;;;;;;;11.33;8.80;;;10.70;20.20;;;;;;10313962;28;20744;-76
2022/03/29 01:43:36;;;;;;;12.00;10.10;;;10.70;20.30;;;;;;10317220;28;20225;-76
2022/03/29 01:48:39;;;;;;;12.80;9.73;;;10.60;20.10;;;;;;10317427;28;20715;-76
2022/03/29 01:53:46;;;;;;;12.50;10.20;;;10.60;20.10;;;;;;10330857;28;20283;-79
2022/03/29 01:58:49;;;;;;;11.00;8.77;;;10.60;20.60;;;;;;10321301;28;20703;-78
2022/03/29 02:03:52;;;;;;;12.60;10.47;;;10.50;20.20;;;;;;10326188;28;20218;-78
2022/03/29 02:08:59;;;;;;;11.97;10.67;;;10.50;20.30;;;;;;10314061;28;20243;-78
2022/03/29 02:14:03;;;;;;;14.17;10.23;;;10.50;21.00;;;;;;10326552;28;20714;-78
2022/03/29 02:19:06;;;;;;;12.67;10.07;;;10.50;20.50;;;;;;10319431;28;20246;-78
2022/03/29 02:24:10;;;;;;;10.03;9.03;;;10.40;20.40;;;;;;10325633;28;20230;-78
2022/03/29 02:29:14;;;;;;;11.13;9.43;;;10.40;20.60;;;;;;10325010;28;20288;-78
2022/03/29 02:34:17;;;;;;;14.10;10.87;;;10.30;20.70;;;;;;10316236;28;20235;-79
2022/03/29 02:39:22;;;;;;;12.27;10.97;;;10.30;20.60;;;;;;10321656;28;20235;-79
2022/03/29 02:44:25;;;;;;;15.10;11.80;;;10.30;20.90;;;;;;10319969;28;20231;-79
2022/03/29 02:49:29;;;;;;;11.53;10.00;;;10.10;20.50;;;;;;10325077;28;20231;-78
2022/03/29 02:54:35;;;;;;;13.83;11.30;;;10.10;20.50;;;;;;10328041;28;20785;-78
2022/03/29 02:59:38;;;;;;;15.17;11.33;;;10.10;20.90;;;;;;10314234;28;20231;-79
2022/03/29 03:04:41;;;;;;;12.23;10.90;;;10.00;20.90;;;;;;10326958;28;20235;-78
2022/03/29 03:09:46;;;;;;;12.50;10.63;;;10.00;20.90;;;;;;10314848;28;20234;-78
2022/03/29 03:14:49;;;;;;;13.77;11.10;;;10.00;21.20;;;;;;10311219;28;20239;-78
2022/03/29 03:19:52;;;;;;;13.67;11.50;;;10.00;21.00;;;;;;10322271;28;20237;-76
2022/03/29 03:24:57;;;;;;;12.20;10.90;;;9.90;21.70;;;;;;10321563;28;20368;-75
2022/03/29 03:30:00;;;;;;;11.67;10.00;;;9.90;22.10;;;;;;10328990;28;20230;-75
2022/03/29 03:35:03;;;;;;;11.33;10.13;;;9.80;21.90;;;;;;10314768;28;20223;-74
2022/03/29 03:40:10;;;;;;;11.10;9.77;;;9.80;21.90;;;;;;10320605;28;20774;-74
2022/03/29 03:45:13;;;;;;;8.87;7.90;;;9.70;22.20;;;;;;10325142;28;20294;-75
2022/03/29 03:50:17;;;;;;;12.13;10.80;;;9.70;22.00;;;;;;10319034;28;20235;-74
2022/03/29 03:55:22;;;;;;;11.23;10.07;;;9.70;22.10;;;;;;10327465;28;20239;-75
2022/03/29 04:00:25;;;;;;;13.13;11.30;;;9.70;22.30;;;;;;10330954;28;20241;-74
2022/03/29 04:05:29;;;;;;;13.53;11.77;;;9.70;22.10;;;;;;10320580;28;20242;-74
2022/03/29 04:10:34;;;;;;;17.83;13.97;;;9.60;22.10;;;;;;10319493;28;21653;-74
2022/03/29 04:15:37;;;;;;;15.33;12.30;;;9.50;22.40;;;;;;10322988;28;20233;-74
2022/03/29 04:20:40;;;;;;;11.47;10.37;;;9.30;22.10;;;;;;10330199;28;20261;-74
2022/03/29 04:25:45;;;;;;;14.40;10.07;;;9.10;22.20;;;;;;10326887;28;21057;-74
2022/03/29 04:30:48;;;;;;;11.27;10.10;;;9.00;22.70;;;;;;10324579;28;20238;-74
2022/03/29 04:35:51;;;;;;;15.57;11.10;;;9.00;22.50;;;;;;10321118;28;20231;-74
2022/03/29 04:40:56;;;;;;;13.17;10.63;;;8.90;22.70;;;;;;10335651;28;20604;-75
2022/03/29 04:46:01;;;;;;;14.50;10.57;;;8.80;22.90;;;;;;10336912;28;20721;-75
2022/03/29 04:51:05;;;;;;;15.27;10.67;;;8.70;22.70;;;;;;10326633;28;20623;-75
2022/03/29 04:56:09;;;;;;;13.77;10.53;;;8.70;23.00;;;;;;10333433;28;20233;-74
2022/03/29 05:01:13;;;;;;;12.50;10.23;;;8.70;23.20;;;;;;10335916;28;20234;-74
2022/03/29 05:06:17;;;;;;;14.23;11.33;;;8.70;23.10;;;;;;10327511;28;20333;-74
2022/03/29 05:11:21;;;;;;;14.50;10.00;;;8.70;23.10;;;;;;10336255;28;20227;-74
2022/03/29 05:16:24;;;;;;;11.33;9.83;;;8.70;25.00;;;;;;10323354;28;20235;-73
2022/03/29 05:21:30;;;;;;;8.77;7.87;;;8.90;23.90;;;;;;10334444;28;20639;-73
2022/03/29 05:26:34;;;;;;;14.30;10.73;;;9.00;23.60;;;;;;10332481;28;20235;-73
2022/03/29 05:31:37;;;;;;;11.13;9.30;;;9.00;23.60;;;;;;10327016;28;20246;-73
2022/03/29 05:36:44;;;;;;;11.53;10.33;;;9.10;23.30;;;;;;10327178;28;20238;-73
2022/03/29 05:41:48;;;;;;;14.40;10.57;;;9.10;23.30;;;;;;10327694;28;20255;-73
2022/03/29 05:52:12;;;;;;;12.77;10.83;;;9.00;23.20;;;;;;10334537;28;20237;-73
2022/03/29 05:57:17;;;;;;;16.43;13.07;;;9.00;23.30;;;;;;10337371;28;20230;-73
2022/03/29 06:02:21;;;;;;;21.60;17.80;;;9.00;23.60;;;;;;10336766;28;20703;-73
2022/03/29 06:07:24;;;;;;;24.00;18.37;;;9.00;23.60;;;;;;10332557;28;20322;-74
2022/03/29 06:12:29;;;;;;;18.20;14.40;;;9.00;23.60;;;;;;10328706;28;20702;-74
2022/03/29 06:17:32;;;;;;;17.30;14.50;;;9.00;23.90;;;;;;10323153;28;20234;-73
2022/03/29 06:22:39;;;;;;;16.70;12.37;;;9.00;23.90;;;;;;10324072;28;20829;-73
2022/03/29 06:27:44;;;;;;;14.67;12.87;;;9.00;24.10;;;;;;10325758;28;20255;-73
2022/03/29 06:32:48;;;;;;;15.83;13.10;;;9.10;24.30;;;;;;10318644;28;20231;-75
2022/03/29 06:37:53;;;;;;;18.27;12.17;;;9.20;24.50;;;;;;10321540;28;20855;-75
2022/03/29 06:42:59;;;;;;;18.07;12.20;;;9.30;24.40;;;;;;10314511;28;20231;-75
2022/03/29 06:48:03;;;;;;;13.30;11.00;;;9.30;24.60;;;;;;10318193;28;20235;-75
2022/03/29 06:53:06;;;;;;;18.93;12.03;;;9.40;24.30;;;;;;10327682;28;20240;-75
2022/03/29 06:58:11;;;;;;;13.73;11.67;;;9.50;24.40;;;;;;10341467;28;20245;-75
2022/03/29 07:03:21;;;;;;;15.50;12.17;;;9.70;24.90;;;;;;10336662;28;20312;-75
2022/03/29 07:08:25;;;;;;;19.03;12.40;;;9.80;24.80;;;;;;10332495;28;20265;-75
2022/03/29 07:13:30;;;;;;;17.70;13.07;;;9.90;24.90;;;;;;10340465;28;20237;-75
2022/03/29 07:18:36;;;;;;;14.13;12.37;;;10.10;24.50;;;;;;10333551;28;20382;-75
2022/03/29 07:23:41;;;;;;;16.57;12.27;;;10.30;24.20;;;;;;10333145;28;20305;-75
2022/03/29 07:28:47;;;;;;;17.80;12.27;;;10.50;24.40;;;;;;10343176;28;20229;-75
2022/03/29 07:33:50;;;;;;;16.13;12.30;;;10.70;24.40;;;;;;10334990;28;20691;-75
2022/03/29 07:38:54;;;;;;;15.03;12.87;;;11.10;24.20;;;;;;10324182;28;20250;-75
2022/03/29 07:43:58;;;;;;;18.97;12.93;;;11.40;24.40;;;;;;10331297;28;20318;-75
2022/03/29 07:49:01;;;;;;;16.60;12.53;;;11.60;24.50;;;;;;10335660;28;20236;-75
2022/03/29 07:54:25;;;;;;;15.60;12.87;;;11.90;24.20;;;;;;10333637;28;20242;-75
2022/03/29 07:59:30;;;;;;;17.97;12.87;;;12.20;24.30;;;;;;10328811;28;20227;-76
2022/03/29 08:04:34;;;;;;;16.33;12.70;;;12.50;24.30;;;;;;10342772;28;20234;-73
2022/03/29 08:09:37;;;;;;;14.33;12.00;;;12.70;24.30;;;;;;10327095;28;20238;-73
2022/03/29 08:14:44;;;;;;;13.93;11.40;;;13.00;24.00;;;;;;10323863;28;20231;-73
2022/03/29 08:19:48;;;;;;;14.60;12.23;;;13.30;23.70;;;;;;10329242;28;20241;-73
2022/03/29 08:24:51;;;;;;;13.23;11.83;;;13.50;23.60;;;;;;10332261;28;20227;-72
2022/03/29 08:29:55;;;;;;;13.60;12.17;;;13.80;23.70;;;;;;10327908;28;20235;-74
2022/03/29 08:34:59;;;;;;;13.63;11.67;;;14.10;23.40;;;;;;10334285;28;20321;-73
2022/03/29 08:40:02;;;;;;;14.77;12.07;;;14.40;23.20;;;;;;10336851;28;20241;-73
2022/03/29 08:45:09;;;;;;;20.30;13.60;;;14.70;23.30;;;;;;10337410;28;20271;-73
2022/03/29 08:50:14;;;;;;;16.90;12.80;;;15.00;22.90;;;;;;10321614;28;20250;-73
2022/03/29 08:55:17;;;;;;;15.40;12.83;;;15.20;22.90;;;;;;10324243;28;20235;-74
2022/03/29 09:00:23;;;;;;;15.07;12.27;;;15.40;22.40;;;;;;10339348;28;20226;-74
2022/03/29 09:05:29;;;;;;;14.90;13.30;;;15.70;22.40;;;;;;10322906;28;20227;-74
2022/03/29 09:10:41;;;;;;;17.30;13.07;;;15.90;22.50;;;;;;10330303;28;20245;-74
2022/03/29 09:15:47;;;;;;;16.23;13.77;;;16.10;22.70;;;;;;10335685;28;20314;-74
2022/03/29 09:21:08;;;;;;;14.23;12.63;;;16.40;22.20;;;;;;10329132;28;20717;-74
2022/03/29 09:26:26;;;;;;;15.07;13.23;;;16.60;22.20;;;;;;10321368;28;20239;-74
2022/03/29 09:31:31;;;;;;;17.40;12.77;;;16.80;22.00;;;;;;10331000;28;20234;-74
2022/03/29 09:36:40;;;;;;;14.97;12.73;;;17.00;22.30;;;;;;10324730;28;20321;-74
2022/03/29 09:41:51;;;;;;;14.13;12.57;;;17.20;22.10;;;;;;10329853;28;20226;-74
2022/03/29 09:46:57;;;;;;;14.60;13.10;;;17.40;21.60;;;;;;10320916;28;20242;-74
2022/03/29 09:52:11;;;;;;;17.73;13.33;;;17.50;21.60;;;;;;10316096;28;20273;-74
2022/03/29 09:57:14;;;;;;;15.97;12.73;;;17.70;21.40;;;;;;10333160;28;20257;-74
2022/03/29 10:02:19;;;;;;;16.03;14.33;;;17.90;21.70;;;;;;10322867;28;20237;-77
2022/03/29 10:07:23;;;;;;;16.40;13.47;;;18.10;21.40;;;;;;10312599;28;20249;-76
2022/03/29 10:12:28;;;;;;;15.80;13.90;;;18.30;21.40;;;;;;10307294;28;20234;-76
2022/03/29 10:17:34;;;;;;;15.73;14.03;;;18.40;21.30;;;;;;10312551;28;20293;-76
2022/03/29 10:22:40;;;;;;;16.67;14.57;;;18.60;20.70;;;;;;10316283;28;20231;-76
2022/03/29 10:27:43;;;;;;;15.57;13.47;;;18.70;20.70;;;;;;10318565;28;21184;-76
2022/03/29 10:32:48;;;;;;;16.03;14.03;;;18.90;20.90;;;;;;10311659;28;20242;-76
2022/03/29 10:37:56;;;;;;;17.57;13.50;;;19.00;20.40;;;;;;10313209;28;20230;-76
2022/03/29 10:43:27;;;;;;;18.00;14.03;;;19.10;19.70;;;;;;10311932;28;20239;-76
2022/03/29 10:48:31;;;;;;;14.27;12.47;;;19.30;20.10;;;;;;10314130;28;20231;-76
2022/03/29 10:53:36;;;;;;;15.17;13.23;;;19.40;20.50;;;;;;10314621;28;20787;-75
2022/03/29 10:59:11;;;;;;;14.70;13.20;;;19.60;20.20;;;;;;10316576;28;20234;-76
2022/03/29 11:04:27;;;;;;;14.10;11.87;;;19.80;19.60;;;;;;10309494;28;20219;-78
2022/03/29 11:09:30;;;;;;;15.13;12.63;;;19.90;19.70;;;;;;10316358;28;20235;-74
2022/03/29 11:14:39;;;;;;;16.40;12.97;;;20.10;19.80;;;;;;10305458;28;20302;-72
2022/03/29 11:19:46;;;;;;;14.00;12.50;;;20.30;18.70;;;;;;10309020;28;20766;-73
2022/03/29 11:24:50;;;;;;;15.20;13.40;;;20.30;19.20;;;;;;10311854;28;20227;-74
2022/03/29 11:29:54;;;;;;;16.00;13.67;;;20.40;19.20;;;;;;10308040;28;20795;-73
2022/03/29 11:34:59;;;;;;;14.77;12.67;;;20.50;18.90;;;;;;10311570;28;20238;-75
2022/03/29 11:40:05;;;;;;;14.90;12.33;;;20.60;19.00;;;;;;10310084;28;20318;-75
2022/03/29 11:45:09;;;;;;;14.97;13.07;;;20.60;18.70;;;;;;10314143;28;20760;-74
2022/03/29 11:50:14;;;;;;;16.90;13.67;;;20.70;18.70;;;;;;10314833;28;20954;-74
2022/03/29 11:55:17;;;;;;;18.07;13.70;;;20.70;18.50;;;;;;10322236;28;20281;-73
2022/03/29 12:00:25;;;;;;;16.23;13.73;;;20.70;18.50;;;;;;10322430;28;20554;-74
2022/03/29 12:05:30;;;;;;;14.47;12.53;;;20.70;18.30;;;;;;10318078;28;20234;-74
2022/03/29 12:10:34;;;;;;;15.50;11.87;;;20.80;18.60;;;;;;10313802;28;20227;-75
2022/03/29 12:15:38;;;;;;;14.30;12.40;;;20.90;18.30;;;;;;10314504;28;20574;-75
2022/03/29 12:20:44;;;;;;;14.13;12.07;;;20.90;17.90;;;;;;10319031;28;20605;-75
2022/03/29 12:25:48;;;;;;;14.53;11.60;;;20.90;17.40;;;;;;10308732;28;20242;-74
2022/03/29 12:30:54;;;;;;;15.47;12.33;;;20.90;17.70;;;;;;10314442;28;20723;-75
2022/03/29 12:36:10;;;;;;;13.90;11.97;;;20.90;17.40;;;;;;10310683;28;20326;-75
2022/03/29 12:41:15;;;;;;;15.03;12.73;;;20.80;16.90;;;;;;10310902;28;20222;-74
2022/03/29 12:46:18;;;;;;;15.20;12.60;;;20.80;17.20;;;;;;10313058;28;20239;-74
2022/03/29 12:51:28;;;;;;;14.20;12.40;;;20.90;17.70;;;;;;10313599;28;20243;-75
2022/03/29 12:56:34;;;;;;;16.13;12.07;;;20.90;17.00;;;;;;10317124;28;20230;-74
2022/03/29 13:01:37;;;;;;;15.97;13.07;;;21.00;17.20;;;;;;10312192;28;20234;-74
2022/03/29 13:06:43;;;;;;;13.37;11.97;;;21.00;17.00;;;;;;10308529;28;20267;-75
2022/03/29 13:11:47;;;;;;;13.20;11.63;;;21.10;16.70;;;;;;10322188;28;20249;-76
2022/03/29 13:16:51;;;;;;;14.13;12.30;;;21.10;17.60;;;;;;10317459;28;20237;-76
2022/03/29 13:22:01;;;;;;;12.53;11.23;;;21.10;16.90;;;;;;10332825;28;20234;-76
2022/03/29 13:27:11;;;;;;;16.73;13.30;;;21.20;16.10;;;;;;10322576;28;20238;-77
2022/03/29 13:32:15;;;;;;;15.73;12.50;;;21.20;16.60;;;;;;10330084;28;20247;-76
2022/03/29 13:37:20;;;;;;;13.83;11.73;;;21.20;16.70;;;;;;10323200;28;21146;-76
2022/03/29 13:42:23;;;;;;;13.87;11.80;;;21.20;16.50;;;;;;10316089;28;20235;-76
2022/03/29 13:47:26;;;;;;;12.80;11.50;;;21.10;16.60;;;;;;10322350;28;20242;-76
2022/03/29 13:52:31;;;;;;;13.07;11.67;;;21.20;16.70;;;;;;10319275;28;20240;-76
2022/03/29 13:57:34;;;;;;;14.73;12.70;;;21.20;16.40;;;;;;10319878;28;20354;-76
2022/03/29 14:02:37;;;;;;;13.03;11.63;;;21.20;16.60;;;;;;10319286;28;20224;-76
2022/03/29 14:07:42;;;;;;;13.57;11.93;;;21.30;16.60;;;;;;10322350;28;20237;-76
2022/03/29 14:12:45;;;;;;;12.93;11.57;;;21.30;16.20;;;;;;10316242;28;20247;-76
2022/03/29 14:17:48;;;;;;;15.40;11.43;;;21.40;16.40;;;;;;10329385;28;20226;-78
2022/03/29 14:22:53;;;;;;;15.60;12.23;;;21.40;16.10;;;;;;10328380;28;20238;-79
2022/03/29 14:27:57;;;;;;;15.37;12.17;;;21.50;16.20;;;;;;10319918;28;20791;-79
2022/03/29 14:33:00;;;;;;;14.87;11.23;;;21.40;16.10;;;;;;10328624;28;20231;-78
2022/03/29 14:38:05;;;;;;;13.87;12.03;;;21.40;16.10;;;;;;10323221;28;20254;-78
2022/03/29 14:43:09;;;;;;;12.30;10.53;;;21.40;16.10;;;;;;10331091;28;20223;-79
2022/03/29 14:48:15;;;;;;;12.03;10.50;;;21.30;16.00;;;;;;10334804;28;20242;-79
2022/03/29 14:53:41;;;;;;;12.13;10.00;;;21.30;16.00;;;;;;10332637;28;20246;-79
2022/03/29 14:58:44;;;;;;;10.40;9.30;;;21.30;16.00;;;;;;10328035;28;20316;-77
2022/03/29 15:03:48;;;;;;;10.20;8.50;;;21.30;16.00;;;;;;10335128;28;20592;-77
2022/03/29 15:08:52;;;;;;;9.83;8.83;;;21.30;16.00;;;;;;10319834;28;20245;-77
2022/03/29 15:13:56;;;;;;;12.73;9.73;;;21.30;15.80;;;;;;10336493;28;20230;-78
2022/03/29 15:18:59;;;;;;;10.93;8.00;;;21.30;16.00;;;;;;10339113;28;20228;-77
2022/03/29 15:24:04;;;;;;;11.37;6.50;;;21.20;15.30;;;;;;10344350;28;20234;-78
2022/03/29 15:29:08;;;;;;;13.47;7.07;;;21.20;15.10;;;;;;10331231;28;20817;-78
2022/03/29 15:34:11;;;;;;;14.03;7.20;;;21.10;15.10;;;;;;10335489;28;20246;-78
2022/03/29 15:39:16;;;;;;;11.47;6.70;;;21.10;15.30;;;;;;10339686;28;20245;-77
2022/03/29 15:44:19;;;;;;;8.77;6.40;;;20.90;15.10;;;;;;10329828;28;20237;-77
2022/03/29 15:49:22;;;;;;;10.57;6.47;;;20.80;15.70;;;;;;10326798;28;20249;-76
2022/03/29 15:54:27;;;;;;;9.33;6.67;;;20.90;15.80;;;;;;10323928;28;20899;-76
2022/03/29 15:59:30;;;;;;;9.57;6.47;;;20.90;15.40;;;;;;10319151;28;20231;-76
2022/03/29 16:04:33;;;;;;;9.03;6.33;;;20.90;15.50;;;;;;10320251;28;20230;-76
2022/03/29 16:09:41;;;;;;;12.17;7.50;;;20.90;15.30;;;;;;10322348;28;20248;-77
2022/03/29 16:14:44;;;;;;;9.50;6.77;;;20.90;14.80;;;;;;10321131;28;20495;-76
2022/03/29 16:19:47;;;;;;;12.20;7.07;;;20.80;15.40;;;;;;10327581;28;20227;-76
2022/03/29 16:24:52;;;;;;;11.37;7.27;;;20.70;15.60;;;;;;10323218;28;20240;-76
2022/03/29 16:30:03;;;;;;;8.60;6.23;;;20.50;15.00;;;;;;10320172;28;20239;-76
2022/03/29 16:35:07;;;;;;;8.50;6.00;;;20.40;15.40;;;;;;10325626;28;20238;-76
2022/03/29 16:40:12;;;;;;;6.90;4.90;;;20.40;15.40;;;;;;10317531;28;20230;-76
2022/03/29 16:45:15;;;;;;;8.13;4.93;;;20.30;15.40;;;;;;10315297;28;20232;-76
2022/03/29 16:50:21;;;;;;;12.87;5.73;;;20.30;15.40;;;;;;10330972;28;20255;-76
2022/03/29 16:55:26;;;;;;;10.10;5.20;;;20.40;15.40;;;;;;10320302;28;20232;-76
2022/03/29 17:00:29;;;;;;;10.20;4.90;;;20.40;15.40;;;;;;10323120;28;20374;-77
2022/03/29 17:05:33;;;;;;;8.77;4.67;;;20.40;15.40;;;;;;10315052;28;20732;-75
2022/03/29 17:10:38;;;;;;;8.67;4.70;;;20.40;15.40;;;;;;10322614;28;20257;-75
2022/03/29 17:15:41;;;;;;;8.07;4.43;;;20.40;15.40;;;;;;10326276;28;20243;-78
2022/03/29 17:20:45;;;;;;;9.27;4.73;;;20.30;15.40;;;;;;10331211;28;20734;-79
2022/03/29 17:25:49;;;;;;;9.07;5.70;;;20.30;15.60;;;;;;10326592;28;20604;-79
2022/03/29 17:30:59;;;;;;;9.13;5.40;;;20.30;15.70;;;;;;10338503;28;20227;-78
2022/03/29 17:36:10;;;;;;;13.83;6.53;;;20.30;15.90;;;;;;10328039;28;20651;-78
2022/03/29 17:41:15;;;;;;;8.57;6.57;;;20.30;16.00;;;;;;10337432;28;20231;-78
2022/03/29 17:46:20;;;;;;;7.47;5.50;;;20.20;15.90;;;;;;10329990;28;20583;-78
2022/03/29 17:51:23;;;;;;;16.53;9.43;;;20.10;16.00;;;;;;10333102;28;21060;-78
2022/03/29 17:56:28;;;;;;;14.07;8.73;;;20.00;15.90;;;;;;10313027;28;20299;-81
2022/03/29 18:01:31;;;;;;;25.77;14.50;;;19.80;15.90;;;;;;10336543;28;20231;-79
2022/03/29 18:06:39;;;;;;;18.10;9.97;;;19.60;15.80;;;;;;10332361;28;20272;-78
2022/03/29 18:11:48;;;;;;;9.50;7.70;;;19.50;16.00;;;;;;10330935;28;20234;-77
2022/03/29 18:16:51;;;;;;;12.07;8.23;;;19.40;16.30;;;;;;10334541;28;20230;-78
2022/03/29 18:21:54;;;;;;;12.17;7.80;;;19.40;16.30;;;;;;10342444;28;20497;-78
2022/03/29 18:27:03;;;;;;;12.20;8.60;;;19.20;16.40;;;;;;10335581;28;20237;-77
2022/03/29 18:32:10;;;;;;;12.97;8.73;;;19.10;16.80;;;;;;10333025;28;20230;-78
2022/03/29 18:37:13;;;;;;;15.20;7.30;;;18.90;16.80;;;;;;10334219;28;20959;-77
2022/03/29 18:42:18;;;;;;;13.00;7.50;;;18.80;16.80;;;;;;10332612;28;20231;-78
2022/03/29 18:47:21;;;;;;;15.07;7.97;;;18.60;17.20;;;;;;10339828;28;20248;-77
2022/03/29 18:52:25;;;;;;;15.00;11.20;;;18.50;17.20;;;;;;10324430;28;20238;-79
2022/03/29 18:57:29;;;;;;;13.07;8.93;;;18.50;17.20;;;;;;10315458;28;20245;-80
2022/03/29 19:02:33;;;;;;;16.93;10.27;;;18.40;17.30;;;;;;10315081;28;20261;-79
2022/03/29 19:07:37;;;;;;;13.47;9.47;;;18.30;17.30;;;;;;10331329;28;20305;-80
2022/03/29 19:12:43;;;;;;;15.30;9.03;;;18.20;17.50;;;;;;10315978;28;20243;-78
2022/03/29 19:17:46;;;;;;;14.27;8.83;;;18.00;17.80;;;;;;10335590;28;20235;-79
2022/03/29 19:22:50;;;;;;;13.90;7.10;;;17.90;17.70;;;;;;10330690;28;20223;-81
2022/03/29 19:27:56;;;;;;;15.93;6.80;;;17.90;17.40;;;;;;10329547;28;20231;-81
2022/03/29 19:33:06;;;;;;;15.33;6.40;;;17.90;17.30;;;;;;10323596;28;20235;-81
2022/03/29 19:38:10;;;;;;;15.50;6.20;;;17.90;17.10;;;;;;10335302;28;20235;-82
2022/03/29 19:43:59;;;;;;;10.30;5.80;;;18.00;17.10;;;;;;10335689;28;20258;-79
2022/03/29 19:49:04;;;;;;;13.30;7.17;;;18.00;17.20;;;;;;10325293;28;20237;-80
2022/03/29 19:54:08;;;;;;;15.40;10.80;;;18.10;17.20;;;;;;10324876;28;20230;-79
2022/03/29 19:59:12;;;;;;;16.97;11.93;;;18.10;17.70;;;;;;10327657;28;20572;-77
2022/03/29 20:04:36;;;;;;;16.03;11.43;;;18.10;17.80;;;;;;10339622;28;20878;-79
2022/03/29 20:09:40;;;;;;;16.63;12.63;;;18.10;18.40;;;;;;10329668;28;20230;-79
2022/03/29 20:14:44;;;;;;;15.00;11.67;;;18.00;18.00;;;;;;10325851;28;20235;-80
2022/03/29 20:19:50;;;;;;;14.40;11.10;;;18.00;18.20;;;;;;10338735;28;20692;-81
2022/03/29 20:25:24;;;;;;;17.43;11.47;;;17.90;18.30;;;;;;10341256;28;20236;-80
2022/03/29 20:30:28;;;;;;;14.83;12.13;;;17.90;18.70;;;;;;10335459;28;20345;-81
2022/03/29 20:35:41;;;;;;;14.07;11.43;;;17.80;18.40;;;;;;10345860;28;20867;-80
2022/03/29 20:40:57;;;;;;;16.33;12.27;;;17.80;19.00;;;;;;10337045;28;20310;-80
2022/03/29 20:46:44;;;;;;;17.37;12.23;;;17.80;19.10;;;;;;10354986;28;20602;-80
2022/03/29 20:51:49;;;;;;;14.43;11.37;;;17.80;19.10;;;;;;10344654;28;20298;-81
2022/03/29 20:56:52;;;;;;;16.07;13.07;;;17.80;18.80;;;;;;10345630;28;20227;-81
2022/03/29 21:01:57;;;;;;;13.33;11.57;;;17.70;18.70;;;;;;10348541;28;20231;-80
2022/03/29 21:07:02;;;;;;;14.77;11.83;;;17.70;18.90;;;;;;10344671;28;20262;-81
2022/03/29 21:18:40;;;;;;;15.13;12.40;;;17.60;19.40;;;;;;10344179;28;20262;-81
2022/03/29 21:23:46;;;;;;;15.77;12.50;;;17.50;19.70;;;;;;10343523;28;20309;-81
2022/03/29 21:28:49;;;;;;;15.27;11.47;;;17.50;19.30;;;;;;10343619;28;20598;-81
2022/03/29 21:33:52;;;;;;;14.77;11.60;;;17.40;19.20;;;;;;10342986;28;20255;-81
2022/03/29 21:39:03;;;;;;;19.20;12.10;;;17.30;19.30;;;;;;10343386;28;20239;-81
2022/03/29 21:44:19;;;;;;;12.53;11.00;;;17.30;19.90;;;;;;10341677;28;20238;-80
2022/03/29 21:49:22;;;;;;;17.17;12.70;;;17.30;20.00;;;;;;10341470;28;20256;-81
2022/03/29 21:54:40;;;;;;;17.33;12.90;;;17.20;19.50;;;;;;10340760;28;20234;-81
2022/03/29 21:59:43;;;;;;;16.80;11.77;;;17.20;20.20;;;;;;10341902;28;20228;-81
2022/03/29 22:04:47;;;;;;;17.17;13.10;;;17.10;19.80;;;;;;10341666;28;20310;-81
2022/03/29 22:10:43;;;;;;;16.20;12.50;;;17.00;20.00;;;;;;10360061;28;20230;-81
2022/03/29 22:15:48;;;;;;;17.73;12.73;;;16.90;20.80;;;;;;10383042;28;20256;-81
2022/03/29 22:20:51;;;;;;;17.10;11.97;;;16.90;20.30;;;;;;10383069;28;20598;-81
2022/03/29 22:25:55;;;;;;;15.10;10.80;;;16.90;20.20;;;;;;10352982;28;20249;-81
2022/03/29 22:31:00;;;;;;;17.97;11.43;;;16.80;20.00;;;;;;10341773;28;20263;-80
2022/03/29 22:41:12;;;;;;;17.20;9.90;;;16.80;20.60;;;;;;10340284;28;20230;-75
2022/03/29 22:46:16;;;;;;;12.10;8.17;;;16.80;20.20;;;;;;10337795;28;20237;-75
2022/03/29 22:51:20;;;;;;;16.33;9.37;;;16.70;20.40;;;;;;10346473;28;20333;-75
2022/03/29 23:02:00;;;;;;;13.53;9.40;;;16.80;20.70;;;;;;10300594;28;20247;-75
2022/03/29 23:07:03;;;;;;;15.77;9.77;;;16.80;21.10;;;;;;10319690;28;20671;-75
2022/03/29 23:12:08;;;;;;;14.27;10.20;;;16.70;20.90;;;;;;10344297;28;20234;-75
2022/03/29 23:17:13;;;;;;;12.33;8.40;;;16.70;21.40;;;;;;10349500;28;20249;-75
2022/03/29 23:22:16;;;;;;;12.50;9.60;;;16.70;21.60;;;;;;10349470;28;20671;-76
2022/03/29 23:27:19;;;;;;;12.10;9.17;;;16.70;21.50;;;;;;10340889;28;20743;-75
2022/03/29 23:32:24;;;;;;;11.33;8.93;;;16.70;21.50;;;;;;10348539;28;20242;-75
2022/03/29 23:37:27;;;;;;;13.90;9.47;;;16.60;21.80;;;;;;10354371;28;20245;-76
2022/03/29 23:42:31;;;;;;;16.77;10.53;;;16.60;21.50;;;;;;10367540;28;20242;-75
2022/03/29 23:47:35;;;;;;;12.43;9.00;;;16.50;21.60;;;;;;10352092;28;20227;-75
2022/03/29 23:52:40;;;;;;;11.40;9.30;;;16.40;21.90;;;;;;10356776;28;20688;-75
2022/03/29 23:57:43;;;;;;;11.03;9.30;;;16.40;21.80;;;;;;10331579;28;20606;-75
